»·PEaware :: PSA1180 KSBA-KSFO

PSA1180 :: KSBA-KSFO

FLIGHT INFORMATION

Flight Status: Arrived
Operator:
Pacific Southwest Airlines
More flights by this operator :: More flights under this callsign
Pilot: Anonymous 10181 (10181)
Aircraft: BOEING 727-200
(B722)
More flights by this aircraft type
Origin: KSBA Santa Barbara Mun
United States
Destination: KSFO San Francisco Intl
United States
More flights between these airports :: More routes between these airports
Route: KWANG5 RZS J501 BSR BSR3
File this flight plan on PilotEdge
Remarks: Happy Thursday!
Altitude:
(Current/Filed)
28,000ft
Speed:
(Current/Filed)
470kts
Departed: 17-Dec-20 06:36 PM
Arrived: 17-Dec-20 07:27 PM
Distance/Time
Traveled:
228nm/0:51
Distance/Time
To Go:
Arrived

Flight Plot

Page will automatically refresh every two minutes.


Map Options




Map Legend


Flown Route
Filed Route
Departure Airport
Arrival Airport
Navaid (VOR, NDB)
Fix

Horizontal Profiles

Position Reports

Time Latitude Longitude Heading Altitude Ground
Speed
17-Dec-20 17:58 34.424000 -119.837000 75 25ft 0kts
17-Dec-20 17:59 34.424000 -119.837000 75 25ft 0kts
17-Dec-20 18:00 34.424000 -119.837000 75 25ft 0kts
17-Dec-20 18:01 34.424000 -119.837000 75 25ft 0kts
17-Dec-20 18:02 34.424000 -119.837000 75 25ft 0kts
17-Dec-20 18:03 34.424000 -119.837000 75 25ft 0kts
17-Dec-20 18:04 34.424000 -119.837000 75 25ft 0kts
17-Dec-20 18:05 34.424000 -119.837000 75 25ft 0kts
17-Dec-20 18:06 34.424000 -119.837000 75 25ft 0kts
17-Dec-20 18:07 34.424000 -119.837000 75 25ft 0kts
17-Dec-20 18:08 34.424000 -119.837000 75 25ft 0kts
17-Dec-20 18:09 34.424000 -119.837000 75 25ft 0kts
17-Dec-20 18:10 34.424000 -119.837000 75 25ft 0kts
17-Dec-20 18:11 34.424000 -119.837000 75 25ft 0kts
17-Dec-20 18:12 34.424000 -119.837000 75 25ft 0kts
17-Dec-20 18:13 34.424000 -119.837000 75 25ft 0kts
17-Dec-20 18:14 34.424000 -119.837000 75 25ft 0kts
17-Dec-20 18:15 34.424000 -119.837000 75 25ft 0kts
17-Dec-20 18:16 34.423899 -119.837243 43 24ft 2kts
17-Dec-20 18:17 34.423458 -119.837362 344 25ft 0kts
17-Dec-20 18:18 34.423458 -119.837362 344 25ft 0kts
17-Dec-20 18:19 34.423459 -119.837362 344 24ft 0kts
17-Dec-20 18:20 34.423459 -119.837362 344 24ft 0kts
17-Dec-20 18:21 34.423459 -119.837362 344 24ft 0kts
17-Dec-20 18:22 34.423459 -119.837362 344 25ft 0kts
17-Dec-20 18:23 34.425363 -119.837965 345 24ft 8kts
17-Dec-20 18:24 34.426755 -119.836865 86 24ft 11kts
17-Dec-20 18:25 34.426925 -119.834642 12 25ft 0kts
17-Dec-20 18:26 34.426932 -119.834641 12 25ft 0kts
17-Dec-20 18:27 34.426932 -119.834641 12 25ft 0kts
17-Dec-20 18:28 34.426932 -119.834641 12 25ft 0kts
17-Dec-20 18:29 34.426932 -119.834641 12 25ft 0kts
17-Dec-20 18:30 34.426932 -119.834641 12 25ft 0kts
17-Dec-20 18:32 34.426932 -119.834641 12 25ft 0kts
17-Dec-20 18:33 34.426932 -119.834641 12 25ft 0kts
17-Dec-20 18:34 34.426932 -119.834641 12 25ft 0kts
17-Dec-20 18:35 34.426932 -119.834641 12 25ft 0kts
17-Dec-20 18:36 34.427874 -119.836595 268 25ft 41kts
17-Dec-20 18:37 34.427914 -119.879868 266 1220ft 145kts
17-Dec-20 18:38 34.394019 -119.878260 87 2468ft 196kts
17-Dec-20 18:39 34.392556 -119.804124 83 4588ft 236kts
17-Dec-20 18:40 34.386020 -119.717381 88 7049ft 284kts
17-Dec-20 18:41 34.380181 -119.628687 39 10224ft 242kts
17-Dec-20 18:42 34.427679 -119.653664 306 11654ft 238kts
17-Dec-20 18:43 34.471291 -119.726896 311 12970ft 293kts
17-Dec-20 18:44 34.532522 -119.795012 325 15416ft 303kts
17-Dec-20 18:45 34.593249 -119.867914 320 17437ft 314kts
17-Dec-20 18:46 34.665143 -119.930156 310 19323ft 320kts
17-Dec-20 18:47 34.721950 -120.015569 311 20955ft 332kts
17-Dec-20 18:47 34.782552 -120.075771 320 22378ft 341kts
17-Dec-20 18:49 34.872252 -120.158117 320 24159ft 351kts
17-Dec-20 18:50 34.947861 -120.234826 317 25511ft 358kts
17-Dec-20 18:51 35.024119 -120.314001 317 26710ft 364kts
17-Dec-20 18:51 35.088650 -120.381060 317 27612ft 368kts
17-Dec-20 18:52 35.166231 -120.467027 314 28013ft 389kts
17-Dec-20 18:54 35.258782 -120.580657 312 28004ft 421kts
17-Dec-20 18:54 35.327518 -120.669135 312 28003ft 433kts
17-Dec-20 18:55 35.410134 -120.776245 312 28021ft 433kts
17-Dec-20 18:56 35.492738 -120.883344 312 28060ft 433kts
17-Dec-20 18:57 35.575557 -120.990750 312 28074ft 433kts
17-Dec-20 18:58 35.658107 -121.098255 312 28072ft 433kts
17-Dec-20 18:59 35.741174 -121.205689 314 28072ft 433kts
17-Dec-20 19:00 35.833966 -121.299956 324 28072ft 435kts
17-Dec-20 19:01 35.935143 -121.381764 325 28105ft 434kts
17-Dec-20 19:02 36.030676 -121.471238 320 28131ft 432kts
17-Dec-20 19:03 36.123784 -121.565006 320 28130ft 432kts
17-Dec-20 19:04 36.217698 -121.659149 319 28126ft 425kts
17-Dec-20 19:05 36.304077 -121.747998 317 26642ft 395kts
17-Dec-20 19:06 36.386431 -121.835141 323 24442ft 384kts
17-Dec-20 19:07 36.473352 -121.907542 324 22403ft 371kts
17-Dec-20 19:08 36.564810 -121.958159 350 20309ft 367kts
17-Dec-20 19:09 36.664703 -121.966130 352 18413ft 355kts
17-Dec-20 19:10 36.760670 -121.979973 348 16472ft 343kts
17-Dec-20 19:11 36.853763 -121.997864 348 14507ft 335kts
17-Dec-20 19:12 36.944696 -122.016780 348 12633ft 327kts
17-Dec-20 19:13 37.033224 -122.036399 348 11036ft 313kts
17-Dec-20 19:14 37.115204 -122.055303 348 10988ft 282kts
17-Dec-20 19:15 37.190370 -122.074798 348 10023ft 266kts
17-Dec-20 19:16 37.260694 -122.094211 348 9571ft 244kts
17-Dec-20 19:17 37.325774 -122.112946 348 7176ft 242kts
17-Dec-20 19:18 37.389839 -122.132279 348 4946ft 233kts
17-Dec-20 19:19 37.452459 -122.150233 348 2691ft 231kts
17-Dec-20 19:20 37.514529 -122.166732 347 1989ft 222kts
17-Dec-20 19:21 37.553854 -122.221353 297 1999ft 216kts
17-Dec-20 19:22 37.573884 -122.277322 284 1806ft 157kts
17-Dec-20 19:23 37.570653 -122.329657 267 1820ft 154kts
17-Dec-20 19:24 37.577295 -122.380053 306 1153ft 146kts
17-Dec-20 19:25 37.610998 -122.380801 26 28ft 136kts
17-Dec-20 19:26 37.626551 -122.372445 217 20ft 7kts
17-Dec-20 19:27 37.622784 -122.375040 218 20ft 11kts
17-Dec-20 19:28 37.619614 -122.379365 228 21ft 0kts
17-Dec-20 19:29 37.619531 -122.379484 228 21ft 0kts

Navigation Log

Ident Type
Flight plan parsing failed, navigation log unavailable